Latest Coastal Weather Observations for Swan Island

IDT60701

Issued at 3:42 pm EDT Monday 18 November 2019 (issued every 10 minutes, with the page automatically refreshed every 10 minutes)

About coastal observations | Map of coastal stations | Coastal observations for TAS | Marine services | Other Formats
Station Details ID: 092123 Name: SWAN ISLAND Lat: -40.73 Lon: 148.12 Height: 15.0 m
Data from the previous 72 hours. | See also: Recent months at Swan Island
Date/Time
EDT
Wind Sea
Height
m
Swell Vis
km
Cloud Weather Temp
°C
Press
hPa
Rain since
9am
mm
Dir  Spd
kts
Gust
kts
Height
m
Period
s
Dir
18/03:30pm WNW 26 37 - - - - - - - 14.8 1006.4 0.0
18/03:00pm WNW 25 35 - - - - - - - 14.7 1006.8 0.0
18/02:33pm WNW 24 34 - - - - - - - 15.1 1007.3 0.0
18/02:30pm WNW 25 34 - - - - - - - 14.9 1007.3 0.0
18/02:02pm WNW 25 35 - - - - - - - 14.6 1007.4 0.0
18/02:00pm WNW 25 34 - - - - - - - 14.7 1007.4 0.0
18/01:53pm WNW 24 34 - - - - - - - 14.7 1007.5 0.0
18/01:30pm WNW 24 31 - - - - - - - 14.4 1008.0 0.0
18/01:00pm WNW 26 35 - - - - - - - 13.3 1008.4 0.0
18/12:43pm WNW 26 36 - - - - - - - 13.8 1008.6 0.0
18/12:30pm WNW 25 33 - - - - - - - 13.3 1008.8 0.0
18/12:02pm WNW 23 33 - - - - - - - 12.7 1009.1 0.0
18/12:00pm WNW 23 33 - - - - - - - 12.9 1009.2 0.0
18/11:30am WNW 23 32 - - - - - - - 12.8 1009.7 0.0
18/11:00am WNW 23 31 - - - - - - - 12.7 1010.3 0.0
18/10:38am WNW 23 33 - - - - - - - 12.8 1010.3 0.0
18/10:30am WNW 24 32 - - - - - - - 12.8 1010.4 0.0
18/10:00am WNW 21 31 - - - - - - - 12.9 1010.7 0.0
18/09:30am WNW 24 33 - - - - - - - 12.9 1010.8 0.0
18/09:13am WNW 22 33 - - - - - - - 12.6 1011.0 0.0
18/09:00am WNW 20 30 - - - - - - - 12.6 1011.4 0.0
18/08:30am WNW 19 29 - - - - - - - 12.3 1011.6 0.0
18/08:00am WNW 18 25 - - - - - - - 12.2 1011.8 0.0
18/07:30am WNW 21 28 - - - - - - - 11.9 1012.1 0.0
18/07:00am WNW 18 26 - - - - - - - 11.8 1012.1 0.0
18/06:53am WNW 18 29 - - - - - - - 12.1 1012.2 0.0
18/06:30am WNW 21 28 - - - - - - - 11.9 1012.1 0.0
18/06:00am WNW 21 28 - - - - - - - 11.9 1012.5 0.0
18/05:35am WNW 18 28 - - - - - - - 11.9 1012.2 0.0
18/05:30am WNW 19 28 - - - - - - - 11.8 1012.2 0.0
18/05:26am W 18 28 - - - - - - - 11.7 1012.1 0.0
18/05:00am W 19 29 - - - - - - - 12.0 1011.6 0.0
18/04:36am W 20 30 - - - - - - - 11.7 1011.9 0.0
18/04:30am WNW 22 30 - - - - - - - 11.9 1012.0 0.0
18/04:00am WNW 23 31 - - - - - - - 11.9 1012.0 0.0
18/03:35am WNW 22 32 - - - - - - - 11.8 1012.0 0.0
18/03:30am W 19 28 - - - - - - - 11.9 1012.1 0.0
18/03:00am W 20 31 - - - - - - - 11.6 1012.6 0.0
18/02:37am W 20 33 - - - - - - - 11.5 1012.8 0.0
18/02:30am W 18 27 - - - - - - - 11.5 1013.0 0.0
18/02:03am W 19 30 - - - - - - - 11.3 1013.3 0.0
18/02:00am W 20 30 - - - - - - - 11.3 1013.5 0.0
18/01:48am W 21 31 - - - - - - - 11.2 1013.8 0.0
18/01:30am W 22 31 - - - - - - - 11.2 1014.1 0.0
18/01:00am W 17 28 - - - - - - - 11.4 1014.5 0.0
18/12:43am W 17 27 - - - - - - - 11.4 1014.7 0.0
18/12:30am W 17 25 - - - - - - - 11.5 1014.8 0.0
18/12:02am W 15 26 - - - - - - - 11.5 1015.4 0.0
18/12:00am W 15 21 - - - - - - - 11.6 1015.5 0.0
 
Date/Time
EDT
Wind Sea
Height
m
Swell Vis
km
Cloud Weather Temp
°C
Press
hPa
Rain since
9am
mm
Dir  Spd
kts
Gust
kts
Height
m
Period
s
Dir
17/11:31pm W 17 28 - - - - - - - 11.8 1015.5 0.0
17/11:30pm W 17 26 - - - - - - - 11.8 1015.5 0.0
17/11:00pm W 14 23 - - - - - - - 12.0 1015.4 0.0
17/10:30pm W 14 21 - - - - - - - 12.2 1015.8 0.0
17/10:00pm W 14 21 - - - - - - - 12.3 1016.0 0.0
17/09:30pm W 14 21 - - - - - - - 12.4 1015.8 0.0
17/09:00pm W 15 21 - - - - - - - 12.5 1015.9 0.0
17/08:30pm W 16 21 - - - - - - - 12.5 1015.9 0.0
17/08:00pm W 15 22 - - - - - - - 12.5 1015.7 0.0
17/07:30pm W 18 23 - - - - - - - 12.9 1015.7 0.0
17/07:00pm W 20 26 - - - - - - - 13.6 1015.4 0.0
17/06:30pm W 20 27 - - - - - - - 13.7 1014.9 0.0
17/06:00pm W 22 29 - - - - - - - 14.0 1015.0 0.0
17/05:30pm W 19 27 - - - - - - - 14.3 1014.9 0.0
17/05:28pm W 17 27 - - - - - - - 14.4 1015.0 0.0
17/05:00pm W 21 29 - - - - - - - 14.8 1014.9 0.0
17/04:45pm W 15 26 - - - - - - - 15.2 1015.0 0.0
17/04:30pm W 15 23 - - - - - - - 14.9 1015.0 0.0
17/04:00pm WNW 17 23 - - - - - - - 14.9 1015.1 0.0
17/03:30pm WNW 18 25 - - - - - - - 15.5 1015.2 0.0
17/03:00pm WNW 17 25 - - - - - - - 15.1 1015.7 0.0
17/02:33pm WNW 15 25 - - - - - - - 15.5 1015.7 0.0
17/02:30pm WNW 16 25 - - - - - - - 15.4 1015.8 0.0
17/02:00pm WNW 15 21 - - - - - - - 15.8 1016.1 0.0
17/01:30pm WNW 13 20 - - - - - - - 15.4 1016.1 0.0
17/01:00pm WNW 16 21 - - - - - - - 15.0 1016.1 0.0
17/12:30pm WNW 14 20 - - - - - - - 15.3 1016.1 0.0
17/12:00pm WNW 13 18 - - - - - - - 14.7 1016.3 0.0
17/11:30am W 13 20 - - - - - - - 15.8 1016.4 0.0
17/11:00am W 12 17 - - - - - - - 15.4 1016.5 0.0
17/10:30am W 12 15 - - - - - - - 14.6 1016.2 0.0
17/10:00am W 13 18 - - - - - - - 13.9 1015.9 0.0
17/09:30am W 13 18 - - - - - - - 13.5 1016.0 0.0
17/09:00am W 13 17 - - - - - - - 12.4 1016.1 0.0
17/08:30am W 12 16 - - - - - - - 11.8 1015.7 0.0
17/08:00am WSW 11 15 - - - - - - - 11.3 1015.5 0.0
17/07:30am WSW 9 15 - - - - - - - 10.4 1015.2 0.0
17/07:00am WSW 8 12 - - - - - - - 9.7 1014.8 0.0
17/06:30am SW 7 11 - - - - - - - 9.1 1014.6 0.0
17/06:00am WSW 8 11 - - - - - - - 8.8 1013.9 0.0
17/05:30am WSW 8 11 - - - - - - - 8.8 1013.8 0.0
17/05:00am WSW 10 17 - - - - - - - 9.3 1013.4 0.0
17/04:30am WSW 13 19 - - - - - - - 10.1 1013.0 0.0
17/04:00am W 14 22 - - - - - - - 10.6 1012.9 0.0
17/03:30am W 17 24 - - - - - - - 10.7 1012.6 0.0
17/03:00am W 18 24 - - - - - - - 10.9 1012.5 0.0
17/02:30am W 18 27 - - - - - - - 10.9 1012.5 0.0
17/02:00am W 20 28 - - - - - - - 10.9 1012.2 0.0
17/01:31am W 17 27 - - - - - - - 11.0 1012.3 0.0
17/01:30am W 17 25 - - - - - - - 11.1 1012.4 0.0
17/01:00am W 18 26 - - - - - - - 11.2 1012.4 0.0
17/12:30am W 18 26 - - - - - - - 11.1 1012.5 0.0
17/12:00am W 22 30 - - - - - - - 11.4 1012.7 0.0
 
Date/Time
EDT
Wind Sea
Height
m
Swell Vis
km
Cloud Weather Temp
°C
Press
hPa
Rain since
9am
mm
Dir  Spd
kts
Gust
kts
Height
m
Period
s
Dir
16/11:30pm W 22 30 - - - - - - - 11.4 1012.9 0.0
16/11:00pm W 19 28 - - - - - - - 11.4 1012.9 0.0
16/10:56pm W 18 28 - - - - - - - 11.4 1012.9 0.0
16/10:30pm W 17 24 - - - - - - - 11.6 1013.0 0.0
16/10:04pm W 17 28 - - - - - - - 11.7 1012.7 0.0
16/10:00pm W 17 27 - - - - - - - 11.6 1012.8 0.0
16/09:43pm W 18 29 - - - - - - - 11.6 1012.8 0.0
16/09:30pm W 18 27 - - - - - - - 11.9 1012.8 0.0
16/09:19pm W 18 28 - - - - - - - 11.8 1012.6 0.0
16/09:00pm W 18 26 - - - - - - - 11.9 1012.5 0.0
16/08:30pm W 19 31 - - - - - - - 12.0 1012.0 0.0
16/08:00pm WNW 20 31 - - - - - - - 12.2 1011.4 0.0
16/07:30pm W 22 34 - - - - - - - 12.3 1011.2 0.0
16/07:00pm WNW 25 37 - - - - - - - 12.6 1010.7 0.0
16/06:30pm W 24 35 - - - - - - - 12.8 1010.5 0.0
16/06:00pm WNW 25 38 - - - - - - - 12.8 1010.3 0.0
16/05:30pm WNW 25 35 - - - - - - - 13.0 1010.3 0.0
16/05:00pm WNW 25 35 - - - - - - - 13.7 1010.0 0.0
16/04:31pm WNW 27 37 - - - - - - - 13.9 1010.0 0.0
16/04:30pm WNW 27 37 - - - - - - - 13.9 1010.0 0.0
16/04:00pm WNW 25 36 - - - - - - - 14.2 1010.0 0.0
16/03:37pm WNW 24 34 - - - - - - - 14.2 1010.0 0.0
16/03:30pm WNW 23 31 - - - - - - - 14.3 1010.1 0.0
16/03:00pm WNW 22 32 - - - - - - - 14.5 1010.5 0.0
16/02:30pm WNW 24 36 - - - - - - - 14.7 1010.4 0.0
16/02:00pm WNW 23 34 - - - - - - - 14.4 1010.4 0.0
16/01:30pm WNW 20 32 - - - - - - - 14.3 1010.8 0.0
16/01:09pm WNW 22 33 - - - - - - - 14.6 1010.8 0.0
16/01:00pm WNW 23 31 - - - - - - - 14.3 1010.8 0.0
16/12:43pm WNW 20 30 - - - - - - - 14.7 1011.1 0.0
16/12:30pm WNW 22 31 - - - - - - - 14.3 1011.1 0.0
16/12:07pm WNW 19 29 - - - - - - - 14.5 1011.0 0.0
16/12:00pm W 19 28 - - - - - - - 14.4 1010.9 0.0
16/11:38am W 19 33 - - - - - - - 14.4 1011.3 0.0
16/11:30am W 20 29 - - - - - - - 14.3 1011.3 0.0
16/11:01am W 19 30 - - - - - - - 14.0 1011.3 0.0
16/11:00am W 19 28 - - - - - - - 13.7 1011.3 0.0
16/10:30am W 20 30 - - - - - - - 13.2 1011.1 0.0
16/10:08am W 17 28 - - - - - - - 14.1 1011.2 0.0
16/10:00am W 17 27 - - - - - - - 13.8 1011.3 0.0
16/09:30am W 18 32 - - - - - - - 13.2 1011.1 0.0
16/09:00am W 19 31 - - - - - - - 12.8 1011.2 0.0
16/08:32am W 18 29 - - - - - - - 12.6 1011.3 0.0
16/08:30am W 18 24 - - - - - - - 12.8 1011.4 0.0
16/08:16am W 19 29 - - - - - - - 12.3 1011.3 0.0
16/08:00am W 21 28 - - - - - - - 12.0 1011.1 0.0
16/07:30am W 22 28 - - - - - - - 11.6 1010.7 0.0
16/07:00am W 20 27 - - - - - - - 11.0 1010.5 0.0
16/06:30am W 21 29 - - - - - - - 10.4 1010.1 0.0
16/06:00am W 21 32 - - - - - - - 10.3 1009.6 0.0
16/05:49am W 20 30 - - - - - - - 10.3 1009.5 0.0
16/05:30am W 21 29 - - - - - - - 10.3 1009.3 0.0
16/05:00am W 21 28 - - - - - - - 10.3 1008.9 0.0
16/04:32am W 20 30 - - - - - - - 10.3 1008.7 0.0
16/04:30am W 21 31 - - - - - - - 10.3 1008.7 0.0
16/04:13am W 21 31 - - - - - - - 10.3 1008.5 0.0
16/04:00am W 25 33 - - - - - - - 10.4 1008.4 0.0
16/03:30am W 25 35 - - - - - - - 10.5 1008.2 0.0
16/03:14am W 24 34 - - - - - - - 10.8 1008.1 0.0
16/03:00am W 24 34 - - - - - - - 10.5 1008.1 0.0
16/02:32am W 25 35 - - - - - - - 10.7 1008.0 0.0
16/02:30am W 26 35 - - - - - - - 10.6 1008.0 0.0
16/02:01am W 24 34 - - - - - - - 10.5 1008.2 0.0
16/02:00am W 24 33 - - - - - - - 10.5 1008.2 0.0
16/01:33am W 25 35 - - - - - - - 10.6 1008.2 0.0
16/01:30am W 26 35 - - - - - - - 10.7 1008.2 0.0
16/01:21am W 23 33 - - - - - - - 10.7 1008.3 0.0
16/01:00am W 26 33 - - - - - - - 10.8 1008.2 0.0
16/12:30am W 27 34 - - - - - - - 11.1 1008.0 0.0
16/12:06am W 22 32 - - - - - - - 11.3 1007.9 0.0
16/12:00am W 23 32 - - - - - - - 11.1 1007.8 0.0
 
Date/Time
EDT
Wind Sea
Height
m
Swell Vis
km
Cloud Weather Temp
°C
Press
hPa
Rain since
9am
mm
Dir  Spd
kts
Gust
kts
Height
m
Period
s
Dir
15/11:30pm W 28 38 - - - - - - - 11.3 1007.7 0.0
15/11:21pm W 26 36 - - - - - - - 11.4 1007.8 0.0
15/11:00pm W 25 34 - - - - - - - 11.5 1007.7 0.0
15/10:30pm W 25 36 - - - - - - - 11.8 1007.5 0.0
15/10:00pm W 23 34 - - - - - - - 11.8 1007.3 0.0
15/09:38pm W 26 37 - - - - - - - 11.8 1006.9 0.0
15/09:30pm W 26 35 - - - - - - - 11.9 1006.8 0.0
15/09:00pm W 26 37 - - - - - - - 12.1 1006.4 0.0
15/08:36pm W 25 35 - - - - - - - 12.3 1006.0 0.0
15/08:30pm W 26 35 - - - - - - - 12.4 1005.9 0.0
15/08:07pm W 21 31 - - - - - - - 12.5 1005.8 0.0
15/08:00pm W 22 32 - - - - - - - 12.5 1005.6 0.0
15/07:30pm W 24 35 - - - - - - - 12.9 1005.1 0.0
15/07:00pm W 25 36 - - - - - - - 13.2 1004.5 0.0
15/06:30pm W 26 37 - - - - - - - 13.4 1003.9 0.0
15/06:01pm W 22 33 - - - - - - - 13.7 1003.2 0.0
15/06:00pm W 22 31 - - - - - - - 13.7 1003.3 0.0
15/05:30pm W 22 35 - - - - - - - 13.8 1003.0 0.0
15/05:00pm W 21 33 - - - - - - - 14.3 1002.7 0.0
15/04:30pm W 23 35 - - - - - - - 14.3 1002.3 0.0
15/04:00pm W 25 36 - - - - - - - 14.8 1002.1 0.0

Other formats

Comma delimited format used in spreadsheet applications
http://www.bom.gov.au/fwo/IDT60701/IDT60701.95985.axf

JavaScript Object Notation format (JSON) in row-major order
http://www.bom.gov.au/fwo/IDT60701/IDT60701.95985.json

Data quality

Most of these data are generated automatically and are frequently updated. Quality checks on data are not normally performed. It is possible for incorrect values to appear. Refer to information at About Latest Weather Observations and please check the disclaimer before using these data.